Skip Navigation Links Skip Navigation Links

Current Weather

Culiacan Apt, Culiacan, Sin., Mexico

For information only: do not use for flight planning or navigation.
Latest weather
Observation time Monday, December 6, 2021 7:55 AM CST
Local time Monday, December 6, 2021 8:21 AM CST
Flight conditions Visual Meteorological Conditions
Winds
Wind speed calm
Visibility 10 mi.
Sky condition
Ceiling unlimited
Cloud layer scattered clouds 15,000 ft.
Temperature 63°F
Dewpoint 55°F
Altimeter 29.99 in.Hg
Derived measurements
Relative humidity 77%
Density altitude 366 ft.
METAR MMCL 061355Z 00000KT 10SM SCT150 17/13 A2999 RMK 8/030 HZY

Settings

Location code

InnerDrive.Weather 4.0.6770.0 Release CLR 4.0.30319.42000
Copyright ©2018 Inner Drive Technology. All rights reserved. Portions Copyright ©1986-2018 David Braverman.

Find weather

Site navigation


Skip Navigation Links

Place info

Page info

PayPal - The safer, easier way to pay online!

Return home.

Copyright ©2021 Inner Drive Technology. Purveyors of fine, hand-crafted computer software. Page printed 2021-12-06T14:21:02 UTC.